Terminal Aerodrome Forecast
Issued by NWS

Current Version | Previous Version | Graphics & Text | Print | Product List | Glossary On
Versions: 1 2 3 4 5 6 7 8 9 10 11 12 13 14 15 16 17 18 19 20 21
000
FTUS41 KILN 010500 RRA
TAFLUK
TAF
KLUK 010541Z 0106/0206 20003KT 5SM BR BKN008
      TEMPO 0106/0110 3SM BR BKN005
     FM011000 21003KT 3SM BR VCSH OVC012
     FM011400 21005KT 5SM BR BKN015
     FM011500 21009KT P6SM BKN022
     FM011700 21012G20KT P6SM SCT040
     FM020200 20005KT P6SM BKN040=

USA.gov is the U.S. government's official web portal to all federal, state and local government web resources and services.